createdAt,value
2019-03-08T00:01:19.064Z,3.87
2019-03-08T00:03:47.121Z,3.00
2019-03-08T00:06:14.475Z,2.97
2019-03-08T00:08:43.043Z,2.83
2019-03-08T00:11:12.693Z,2.20
2019-03-08T00:13:41.790Z,2.40
2019-03-08T00:16:09.242Z,2.33
2019-03-08T00:18:39.532Z,2.00
2019-03-08T00:21:07.828Z,2.33
2019-03-08T00:23:37.912Z,1.63
2019-03-08T00:26:06.333Z,1.60
2019-03-08T00:28:34.142Z,1.67
2019-03-08T00:31:01.686Z,1.53
2019-03-08T00:33:29.001Z,1.50
2019-03-08T00:35:56.463Z,1.70
2019-03-08T00:38:24.340Z,1.63
2019-03-08T00:40:51.647Z,1.37
2019-03-08T00:43:19.036Z,1.90
2019-03-08T00:45:46.422Z,1.23
2019-03-08T00:48:13.739Z,1.57
2019-03-08T00:50:41.138Z,1.40
2019-03-08T00:53:08.569Z,1.50
2019-03-08T00:55:36.252Z,1.47
2019-03-08T00:58:03.727Z,1.40
2019-03-08T01:00:31.220Z,1.77
2019-03-08T01:03:00.053Z,1.50
2019-03-08T01:05:27.380Z,1.50
2019-03-08T01:07:54.915Z,1.20
2019-03-08T01:10:25.211Z,1.63
2019-03-08T01:12:52.568Z,1.23
2019-03-08T01:15:19.953Z,1.30
2019-03-08T01:17:47.333Z,1.07
2019-03-08T01:20:16.288Z,1.13
2019-03-08T01:22:43.819Z,1.10
2019-03-08T01:25:11.474Z,1.07
2019-03-08T01:27:40.577Z,1.20
2019-03-08T01:30:09.663Z,1.00
2019-03-08T01:32:37.087Z,1.00
2019-03-08T01:35:04.677Z,1.00
2019-03-08T01:37:32.017Z,0.93
2019-03-08T01:39:59.395Z,0.83
2019-03-08T01:42:26.989Z,0.80
2019-03-08T01:44:54.447Z,0.90
2019-03-08T01:47:21.816Z,0.77
2019-03-08T01:49:49.309Z,0.60
2019-03-08T01:52:16.726Z,0.80
2019-03-08T01:54:44.199Z,0.90
2019-03-08T01:57:11.510Z,1.13
2019-03-08T01:59:38.875Z,1.03
2019-03-08T02:02:06.341Z,1.23
2019-03-08T02:04:33.779Z,0.80
2019-03-08T02:07:01.207Z,1.00
2019-03-08T02:09:30.225Z,1.27
2019-03-08T02:11:57.559Z,1.20
2019-03-08T02:14:25.175Z,1.10
2019-03-08T02:16:52.578Z,1.10
2019-03-08T02:19:20.065Z,1.10
2019-03-08T02:21:47.489Z,1.10
2019-03-08T02:24:14.807Z,1.40
2019-03-08T02:26:42.158Z,1.33
2019-03-08T02:29:09.595Z,1.00
2019-03-08T02:31:37.006Z,1.00
2019-03-08T02:34:04.413Z,0.93
2019-03-08T02:36:31.773Z,0.90
2019-03-08T02:38:59.113Z,1.30
2019-03-08T02:41:26.541Z,1.10
2019-03-08T02:43:53.892Z,0.93
2019-03-08T02:46:21.230Z,0.80
2019-03-08T02:48:48.665Z,1.07
2019-03-08T02:51:15.979Z,1.17
2019-03-08T02:53:43.492Z,1.20
2019-03-08T02:56:10.817Z,1.20
2019-03-08T02:58:38.120Z,1.17
2019-03-08T03:01:05.881Z,1.10
2019-03-08T03:03:33.343Z,1.10
2019-03-08T03:06:00.673Z,1.17
2019-03-08T03:08:28.089Z,1.33
2019-03-08T03:10:55.395Z,1.10
2019-03-08T03:13:23.170Z,1.10
2019-03-08T03:15:50.569Z,1.30
2019-03-08T03:18:18.404Z,1.27
2019-03-08T03:20:53.247Z,1.30
2019-03-08T03:23:20.571Z,1.30
2019-03-08T03:25:48.067Z,1.13
2019-03-08T03:28:15.385Z,1.27
2019-03-08T03:30:42.814Z,1.30
2019-03-08T03:33:10.626Z,1.30
2019-03-08T03:35:37.973Z,1.43
2019-03-08T03:38:05.389Z,1.43
2019-03-08T03:40:32.851Z,1.30
2019-03-08T03:43:00.179Z,1.10
2019-03-08T03:45:27.591Z,1.43
2019-03-08T03:47:55.115Z,1.40
2019-03-08T03:50:22.783Z,1.20
2019-03-08T03:52:50.252Z,1.30
2019-03-08T03:55:17.968Z,1.23
2019-03-08T03:57:45.302Z,1.63
2019-03-08T04:00:14.003Z,1.33
2019-03-08T04:02:41.390Z,1.30
2019-03-08T04:05:09.139Z,1.57
2019-03-08T04:07:36.463Z,1.37
2019-03-08T04:10:04.680Z,1.53
2019-03-08T04:12:32.192Z,1.80
2019-03-08T04:14:59.599Z,1.80
2019-03-08T04:17:27.073Z,1.97
2019-03-08T04:19:54.400Z,2.17
2019-03-08T04:22:21.844Z,2.20
2019-03-08T04:24:49.224Z,2.30
2019-03-08T04:27:16.688Z,3.00
2019-03-08T04:29:44.006Z,2.53
2019-03-08T04:32:11.494Z,2.73
2019-03-08T04:34:38.872Z,3.20
2019-03-08T04:37:06.259Z,3.70
2019-03-08T04:39:33.679Z,4.53
2019-03-08T04:42:01.002Z,4.83
2019-03-08T04:44:28.510Z,5.50
2019-03-08T04:46:55.957Z,5.40
2019-03-08T04:49:23.325Z,5.50
2019-03-08T04:51:50.714Z,5.83
2019-03-08T04:54:18.633Z,5.70
2019-03-08T04:56:46.005Z,5.67
2019-03-08T04:59:13.360Z,5.40
2019-03-08T05:01:40.694Z,4.47
2019-03-08T05:04:08.212Z,4.57
2019-03-08T05:06:35.521Z,5.50
2019-03-08T05:09:03.360Z,4.60
2019-03-08T05:11:30.977Z,4.80
2019-03-08T05:13:58.350Z,5.63
2019-03-08T05:16:25.696Z,6.13
2019-03-08T05:18:53.114Z,5.57
2019-03-08T05:21:20.538Z,5.37
2019-03-08T05:23:47.954Z,5.87
2019-03-08T05:26:15.349Z,6.57
2019-03-08T05:28:42.702Z,6.23
2019-03-08T05:31:10.045Z,5.30
2019-03-08T05:33:37.367Z,6.83
2019-03-08T05:36:04.888Z,5.97
2019-03-08T05:38:36.833Z,5.90
2019-03-08T05:41:04.246Z,7.43
2019-03-08T05:43:31.908Z,7.30
2019-03-08T05:45:59.288Z,6.83
2019-03-08T05:48:26.754Z,6.60
2019-03-08T05:50:54.142Z,7.50
2019-03-08T05:53:21.611Z,7.60
2019-03-08T05:55:48.951Z,5.60
2019-03-08T05:58:16.418Z,5.50
2019-03-08T06:00:43.866Z,5.10
2019-03-08T06:03:11.308Z,4.67
2019-03-08T06:05:38.754Z,4.67
2019-03-08T06:08:06.075Z,5.13
2019-03-08T06:10:34.073Z,4.50
2019-03-08T06:13:02.156Z,4.73
2019-03-08T06:15:29.508Z,4.90
2019-03-08T06:17:57.276Z,3.83
2019-03-08T06:20:25.018Z,4.03
2019-03-08T06:22:52.383Z,5.23
2019-03-08T06:25:19.721Z,5.63
2019-03-08T06:27:47.791Z,6.40
2019-03-08T06:30:15.158Z,7.07
2019-03-08T06:32:42.560Z,7.50
2019-03-08T06:35:10.596Z,6.77
2019-03-08T06:37:38.129Z,5.97
2019-03-08T06:40:06.999Z,5.40
2019-03-08T06:42:34.338Z,5.20
2019-03-08T06:45:01.700Z,5.30
2019-03-08T06:47:29.110Z,5.80
2019-03-08T06:49:56.506Z,5.53
2019-03-08T06:52:23.863Z,5.60
2019-03-08T06:54:51.191Z,7.10
2019-03-08T06:57:20.416Z,6.17
2019-03-08T06:59:49.281Z,6.17
2019-03-08T07:02:17.920Z,5.03
2019-03-08T07:04:45.301Z,5.57
2019-03-08T07:07:12.807Z,5.40
2019-03-08T07:09:40.348Z,5.10
2019-03-08T07:12:09.297Z,7.53
2019-03-08T07:14:36.675Z,7.57
2019-03-08T07:17:04.029Z,8.37
2019-03-08T07:19:40.364Z,7.40
2019-03-08T07:22:02.258Z,6.23
2019-03-08T07:24:43.331Z,3.63
2019-03-08T07:27:24.069Z,3.30
2019-03-08T07:29:53.484Z,3.10
2019-03-08T07:32:31.735Z,2.43
2019-03-08T07:35:00.718Z,2.73
2019-03-08T07:37:35.657Z,2.47
2019-03-08T07:40:05.200Z,2.50
2019-03-08T07:42:40.289Z,3.17
2019-03-08T07:45:26.765Z,2.40
2019-03-08T07:47:56.055Z,3.07
2019-03-08T07:50:28.009Z,2.77
2019-03-08T07:53:13.201Z,2.57
2019-03-08T07:55:42.295Z,2.07
2019-03-08T07:58:16.951Z,2.13
2019-03-08T08:00:57.860Z,2.20
2019-03-08T08:03:26.845Z,2.50
2019-03-08T08:06:04.892Z,2.10
2019-03-08T08:08:51.953Z,2.33
2019-03-08T08:11:19.617Z,2.20
2019-03-08T08:13:48.654Z,2.67
2019-03-08T08:16:41.552Z,2.70
2019-03-08T08:19:10.700Z,2.17
2019-03-08T08:21:44.058Z,1.90
2019-03-08T08:24:16.423Z,1.53
2019-03-08T08:27:03.895Z,1.37
2019-03-08T08:32:29.083Z,1.83
2019-03-08T08:34:58.084Z,1.83
2019-03-08T08:37:29.727Z,1.30
2019-03-08T08:39:58.750Z,1.20
2019-03-08T08:42:30.519Z,1.20
2019-03-08T08:45:02.451Z,1.10
2019-03-08T08:47:47.595Z,1.13
2019-03-08T08:50:23.233Z,1.00
2019-03-08T08:53:04.049Z,0.70
2019-03-08T08:55:43.611Z,1.00
2019-03-08T08:58:15.545Z,0.90
2019-03-08T09:00:46.199Z,0.73
2019-03-08T09:03:18.442Z,0.70
2019-03-08T09:05:53.248Z,0.90
2019-03-08T09:08:26.878Z,0.70
2019-03-08T09:11:11.230Z,0.80
2019-03-08T09:13:59.141Z,0.90
2019-03-08T09:16:41.565Z,0.80
2019-03-08T09:19:11.193Z,0.90
2019-03-08T09:21:42.962Z,0.67
2019-03-08T09:24:18.023Z,0.80
2019-03-08T09:27:03.697Z,0.70
2019-03-08T09:29:41.237Z,1.00
2019-03-08T09:32:16.951Z,0.70
2019-03-08T09:34:46.029Z,0.80
2019-03-08T09:37:31.577Z,0.80
2019-03-08T09:40:12.355Z,0.90
2019-03-08T09:42:50.670Z,0.90
2019-03-08T09:45:16.931Z,0.63
2019-03-08T09:47:52.124Z,0.70
2019-03-08T09:50:27.493Z,0.60
2019-03-08T09:52:57.134Z,0.60
2019-03-08T09:55:29.089Z,0.60
2019-03-08T09:58:06.726Z,0.90
2019-03-08T10:00:36.770Z,0.83
2019-03-08T10:03:22.257Z,0.60
2019-03-08T10:05:54.245Z,0.80
2019-03-08T10:08:26.619Z,0.70
2019-03-08T10:11:04.749Z,0.70
2019-03-08T10:13:52.710Z,0.80
2019-03-08T10:16:27.523Z,0.57
2019-03-08T10:19:02.415Z,0.63
2019-03-08T10:21:34.501Z,0.80
2019-03-08T10:24:03.613Z,1.10
2019-03-08T10:26:41.677Z,0.67
2019-03-08T10:29:25.586Z,0.70
2019-03-08T10:32:12.894Z,0.70
2019-03-08T10:34:47.798Z,0.80
2019-03-08T10:37:19.663Z,0.50
2019-03-08T10:40:07.023Z,1.60
2019-03-08T10:42:36.053Z,1.20
2019-03-08T10:45:05.113Z,0.80
2019-03-08T10:47:39.680Z,0.60
2019-03-08T10:50:15.736Z,0.60
2019-03-08T10:52:44.848Z,0.70
2019-03-08T10:55:28.934Z,0.60
2019-03-08T10:58:10.025Z,0.77
2019-03-08T11:00:39.168Z,0.50
2019-03-08T11:03:16.955Z,0.70
2019-03-08T11:05:48.725Z,0.70
2019-03-08T11:08:17.680Z,0.53
2019-03-08T11:11:06.465Z,0.50
2019-03-08T11:13:44.438Z,0.67
2019-03-08T11:16:30.316Z,0.70
2019-03-08T11:19:17.668Z,0.70
2019-03-08T11:22:04.714Z,0.93
2019-03-08T11:24:48.793Z,0.60
2019-03-08T11:27:17.785Z,1.00
2019-03-08T11:30:04.952Z,1.00
2019-03-08T11:32:34.018Z,0.90
2019-03-08T11:35:05.954Z,1.00
2019-03-08T11:37:43.978Z,0.50
2019-03-08T11:40:22.430Z,0.70
2019-03-08T11:43:03.881Z,0.97
2019-03-08T11:45:35.766Z,0.90
2019-03-08T11:48:07.494Z,0.90
2019-03-08T11:50:53.090Z,0.70
2019-03-08T11:53:28.200Z,0.70
2019-03-08T11:55:59.709Z,0.60
2019-03-08T11:58:45.938Z,0.60
2019-03-08T12:01:30.938Z,0.83
2019-03-08T12:04:00.040Z,0.80
2019-03-08T12:06:31.937Z,0.77
2019-03-08T12:09:04.059Z,0.83
2019-03-08T12:11:42.053Z,0.60
2019-03-08T12:14:11.085Z,0.73
2019-03-08T12:16:52.170Z,1.00
2019-03-08T12:19:26.796Z,1.20
2019-03-08T12:22:05.102Z,1.20
2019-03-08T12:24:34.186Z,1.00
2019-03-08T12:27:05.723Z,0.87
2019-03-08T12:29:34.745Z,1.20
2019-03-08T12:32:06.702Z,0.93
2019-03-08T12:34:41.556Z,1.50
2019-03-08T12:37:10.719Z,0.90
2019-03-08T12:39:48.666Z,0.90
2019-03-08T12:42:27.452Z,0.90
2019-03-08T12:45:02.174Z,0.90
2019-03-08T12:47:36.773Z,0.93
2019-03-08T12:50:07.100Z,0.60
2019-03-08T12:52:52.571Z,1.00
2019-03-08T12:55:37.959Z,0.60
2019-03-08T12:58:10.223Z,0.60
2019-03-08T13:00:39.250Z,0.70
2019-03-08T13:03:16.917Z,0.57
2019-03-08T13:05:46.026Z,0.60
2019-03-08T13:08:18.267Z,1.00
2019-03-08T13:10:45.728Z,0.67
2019-03-08T13:13:13.143Z,1.00
2019-03-08T13:15:41.705Z,0.77
2019-03-08T13:18:11.009Z,0.80
2019-03-08T13:20:38.325Z,0.90
2019-03-08T13:28:49.944Z,0.83
2019-03-08T13:31:17.470Z,0.90
2019-03-08T13:33:44.860Z,0.70
2019-03-08T13:36:14.334Z,0.80
2019-03-08T13:38:42.231Z,0.87
2019-03-08T13:41:09.625Z,1.17
2019-03-08T13:43:37.518Z,0.70
2019-03-08T13:46:05.049Z,0.90
2019-03-08T13:48:32.635Z,1.30
2019-03-08T13:51:00.025Z,1.00
2019-03-08T13:53:27.628Z,1.47
2019-03-08T13:55:54.937Z,1.50
2019-03-08T13:58:22.337Z,1.50
2019-03-08T14:00:51.218Z,1.87
2019-03-08T14:03:18.583Z,1.33
2019-03-08T14:05:46.123Z,2.03
2019-03-08T14:08:13.913Z,1.10
2019-03-08T14:10:41.366Z,1.00
2019-03-08T14:13:08.721Z,1.00
2019-03-08T14:15:36.219Z,1.17
2019-03-08T14:18:03.647Z,1.50
2019-03-08T14:20:32.051Z,1.40
2019-03-08T14:23:01.977Z,1.63
2019-03-08T14:25:30.951Z,1.30
2019-03-08T14:27:59.416Z,1.20
2019-03-08T14:30:32.160Z,1.90
2019-03-08T14:33:01.642Z,1.70
2019-03-08T14:35:29.735Z,1.60
2019-03-08T14:37:57.597Z,1.30
2019-03-08T14:40:44.819Z,1.53
2019-03-08T14:43:17.765Z,1.50
2019-03-08T14:45:52.946Z,1.80
2019-03-08T14:48:22.705Z,2.40
2019-03-08T14:50:51.650Z,2.57
2019-03-08T14:53:19.179Z,3.13
2019-03-08T14:55:47.725Z,2.80
2019-03-08T14:58:15.261Z,2.57
2019-03-08T15:00:44.192Z,3.30
2019-03-08T15:03:11.564Z,1.70
2019-03-08T15:05:39.099Z,1.60
2019-03-08T15:08:06.518Z,1.40
2019-03-08T15:10:39.399Z,1.70
2019-03-08T15:13:02.915Z,2.60
2019-03-08T15:15:30.408Z,1.90
2019-03-08T15:17:58.952Z,1.80
2019-03-08T15:20:26.370Z,1.40
2019-03-08T15:22:53.897Z,1.10
2019-03-08T15:25:21.315Z,1.57
2019-03-08T15:27:48.856Z,1.77
2019-03-08T15:30:17.910Z,1.60
2019-03-08T15:32:45.581Z,1.03
2019-03-08T15:35:14.838Z,1.23
2019-03-08T15:37:44.499Z,1.10
2019-03-08T15:40:12.914Z,1.10
2019-03-08T15:42:41.863Z,0.90
2019-03-08T15:45:10.009Z,1.27
2019-03-08T15:47:38.715Z,1.60
2019-03-08T15:50:09.837Z,1.83
2019-03-08T15:52:37.056Z,1.80
2019-03-08T15:55:05.123Z,1.20
2019-03-08T15:57:32.540Z,2.00
2019-03-08T16:00:00.021Z,2.10
2019-03-08T16:02:27.579Z,2.10
2019-03-08T16:04:55.096Z,2.20
2019-03-08T16:07:27.218Z,2.83
2019-03-08T16:09:55.067Z,3.17
2019-03-08T16:12:22.462Z,2.97
2019-03-08T16:14:52.156Z,3.13
2019-03-08T16:17:19.580Z,3.03
2019-03-08T16:19:49.918Z,3.10
2019-03-08T16:22:18.029Z,3.70
2019-03-08T16:24:46.452Z,4.10
2019-03-08T16:27:15.222Z,4.03
2019-03-08T16:29:47.672Z,4.13
2019-03-08T16:32:16.712Z,3.40
2019-03-08T16:34:44.221Z,4.50
2019-03-08T16:37:16.021Z,5.60
2019-03-08T16:39:50.957Z,6.10
2019-03-08T16:42:22.708Z,7.27
2019-03-08T16:44:57.723Z,6.17
2019-03-08T16:47:26.707Z,5.17
2019-03-08T16:50:01.635Z,5.80
2019-03-08T16:52:36.132Z,6.80
2019-03-08T16:55:16.799Z,6.43
2019-03-08T16:57:48.654Z,7.27
2019-03-08T17:00:17.991Z,8.43
2019-03-08T17:02:49.826Z,8.03
2019-03-08T17:05:21.668Z,6.00
2019-03-08T17:07:50.590Z,6.27
2019-03-08T17:10:22.456Z,6.63
2019-03-08T17:12:54.320Z,6.90
2019-03-08T17:15:40.209Z,6.00
2019-03-08T17:18:11.859Z,6.13
2019-03-08T17:20:41.116Z,5.43
2019-03-08T17:23:26.615Z,5.30
2019-03-08T17:25:58.287Z,6.70
2019-03-08T17:28:30.340Z,7.97
2019-03-08T17:30:59.540Z,7.50
2019-03-08T17:33:44.750Z,7.80
2019-03-08T17:36:19.836Z,6.77
2019-03-08T17:39:07.644Z,7.77
2019-03-08T17:41:42.176Z,6.73
2019-03-08T17:44:27.736Z,7.10
2019-03-08T17:47:02.074Z,7.27
2019-03-08T17:49:34.351Z,7.50
2019-03-08T17:52:03.446Z,9.43
2019-03-08T17:54:37.899Z,11.77
2019-03-08T17:57:06.923Z,12.27
2019-03-08T17:59:38.695Z,14.47
2019-03-08T18:02:16.453Z,14.17
2019-03-08T18:05:03.733Z,15.10
2019-03-08T18:07:41.612Z,15.30
2019-03-08T18:10:13.353Z,13.90
2019-03-08T18:12:42.412Z,13.47
2019-03-08T18:15:20.346Z,13.40
2019-03-08T18:17:55.645Z,13.80
2019-03-08T18:20:36.969Z,14.13
2019-03-08T18:23:12.229Z,12.80
2019-03-08T18:25:41.262Z,13.57
2019-03-08T18:28:25.057Z,14.93
2019-03-08T18:30:54.176Z,14.43
2019-03-08T18:33:38.656Z,15.30
2019-03-08T18:36:11.305Z,14.23
2019-03-08T18:38:52.661Z,16.37
2019-03-08T18:41:36.515Z,17.17
2019-03-08T18:44:08.722Z,15.77
2019-03-08T18:46:45.320Z,14.77
2019-03-08T18:49:26.352Z,16.53
2019-03-08T18:52:07.365Z,15.77
2019-03-08T18:54:51.852Z,15.33
2019-03-08T18:57:38.824Z,16.47
2019-03-08T19:00:12.111Z,15.47
2019-03-08T19:02:41.219Z,15.80
2019-03-08T19:05:27.930Z,15.20
2019-03-08T19:07:59.739Z,15.47
2019-03-08T19:10:40.156Z,18.23
2019-03-08T19:13:27.522Z,16.40
2019-03-08T19:15:59.075Z,19.13
2019-03-08T19:18:35.625Z,18.67
2019-03-08T19:21:22.504Z,18.23
2019-03-08T19:24:02.763Z,19.67
2019-03-08T19:26:38.697Z,18.27
2019-03-08T19:29:22.272Z,18.67
2019-03-08T19:31:57.335Z,17.60
2019-03-08T19:34:32.170Z,19.57
2019-03-08T19:37:13.314Z,19.60
2019-03-08T19:40:01.789Z,18.27
2019-03-08T19:42:30.938Z,18.97
2019-03-08T19:45:08.896Z,17.37
2019-03-08T19:47:48.082Z,18.10
2019-03-08T19:50:21.355Z,18.30
2019-03-08T19:53:06.969Z,16.33
2019-03-08T19:55:36.141Z,16.97
2019-03-08T19:58:13.952Z,18.30
2019-03-08T20:00:43.104Z,21.10
2019-03-08T20:03:15.156Z,21.30
2019-03-08T20:06:04.227Z,22.53
2019-03-08T20:08:46.468Z,16.27
2019-03-08T20:11:35.738Z,14.30
2019-03-08T20:14:19.500Z,11.83
2019-03-08T20:17:05.395Z,10.07
2019-03-08T20:19:40.600Z,7.47
2019-03-08T20:22:21.400Z,6.43
2019-03-08T20:25:08.874Z,5.37
2019-03-08T20:27:46.931Z,5.17
2019-03-08T20:30:22.056Z,5.00
2019-03-08T20:33:07.787Z,5.03
2019-03-08T20:35:54.937Z,5.43
2019-03-08T20:38:35.896Z,5.87
2019-03-08T20:41:10.976Z,8.07
2019-03-08T20:43:40.050Z,6.90
2019-03-08T20:46:09.085Z,6.77
2019-03-08T20:48:36.572Z,6.90
2019-03-08T20:51:04.090Z,8.33
2019-03-08T20:53:33.134Z,8.07
2019-03-08T20:56:00.684Z,7.80
2019-03-08T20:58:28.149Z,7.90
2019-03-08T21:00:55.575Z,10.40
2019-03-08T21:03:23.010Z,11.90
2019-03-08T21:05:50.863Z,10.50
2019-03-08T21:08:18.477Z,11.37
2019-03-08T21:10:48.794Z,13.23
2019-03-08T21:13:17.902Z,9.83
2019-03-08T21:15:45.352Z,8.63
2019-03-08T21:18:12.819Z,9.03
2019-03-08T21:20:40.655Z,9.83
2019-03-08T21:23:08.166Z,9.43
2019-03-08T21:25:35.624Z,7.13
2019-03-08T21:28:03.124Z,8.20
2019-03-08T21:30:30.515Z,9.63
2019-03-08T21:32:59.659Z,7.83
2019-03-08T21:35:41.141Z,9.27
2019-03-08T21:38:08.667Z,9.50
2019-03-08T21:40:36.130Z,9.70
2019-03-08T21:43:03.644Z,9.60
2019-03-08T21:45:31.103Z,9.93
2019-03-08T21:48:01.737Z,9.87
2019-03-08T21:50:30.728Z,10.53
2019-03-08T21:52:58.187Z,13.33
2019-03-08T21:55:25.613Z,14.87
2019-03-08T21:57:53.054Z,16.57
2019-03-08T22:00:22.041Z,20.10
2019-03-08T22:02:49.455Z,19.87
2019-03-08T22:05:18.584Z,25.70
2019-03-08T22:07:46.059Z,20.33
2019-03-08T22:10:20.694Z,18.57
2019-03-08T22:12:48.120Z,13.77
2019-03-08T22:15:15.544Z,11.90
2019-03-08T22:17:43.277Z,11.40
2019-03-08T22:20:10.742Z,8.47
2019-03-08T22:22:38.159Z,9.13
2019-03-08T22:25:07.212Z,8.63
2019-03-08T22:27:34.699Z,8.63
2019-03-08T22:30:02.122Z,8.33
2019-03-08T22:32:29.642Z,7.83
2019-03-08T22:34:57.081Z,7.17
2019-03-08T22:37:24.588Z,7.40
2019-03-08T22:39:52.052Z,8.00
2019-03-08T22:42:19.549Z,7.40
2019-03-08T22:44:46.976Z,7.93
2019-03-08T22:47:14.546Z,7.97
2019-03-08T22:49:42.062Z,8.07
2019-03-08T22:52:09.527Z,7.50
2019-03-08T22:54:37.019Z,9.03
2019-03-08T22:57:04.543Z,9.57
2019-03-08T22:59:32.033Z,8.27
2019-03-08T23:02:03.792Z,8.90
2019-03-08T23:04:31.214Z,8.17
2019-03-08T23:06:58.664Z,8.20
2019-03-08T23:09:26.154Z,7.53
2019-03-08T23:11:53.788Z,7.37
2019-03-08T23:14:21.286Z,7.00
2019-03-08T23:16:48.780Z,7.50
2019-03-08T23:19:16.176Z,7.77
2019-03-08T23:21:44.980Z,7.63
2019-03-08T23:24:12.400Z,8.63
2019-03-08T23:26:41.460Z,9.00
2019-03-08T23:29:10.485Z,9.10
2019-03-08T23:31:39.574Z,8.90
2019-03-08T23:34:06.954Z,10.60
2019-03-08T23:36:34.359Z,9.50
2019-03-08T23:39:02.028Z,8.77
2019-03-08T23:41:29.428Z,10.20
2019-03-08T23:43:56.910Z,9.50
2019-03-08T23:46:24.328Z,10.23
2019-03-08T23:48:51.713Z,10.57
2019-03-08T23:51:19.238Z,10.33
2019-03-08T23:53:47.107Z,10.60
2019-03-08T23:56:14.679Z,10.07
2019-03-08T23:58:42.169Z,10.73
